sensor_id;sensor_type;location;lat;lon;timestamp;P1;durP1;ratioP1;P2;durP2;ratioP2
43118;SDS011;28729;49.838;8.650;2022-11-15T00:00:56;5.70;;;3.30;;
43118;SDS011;28729;49.838;8.650;2022-11-15T00:05:16;10.60;;;3.20;;
43118;SDS011;28729;49.838;8.650;2022-11-15T00:09:36;5.57;;;3.13;;
43118;SDS011;28729;49.838;8.650;2022-11-15T00:14:04;8.38;;;3.15;;
43118;SDS011;28729;49.838;8.650;2022-11-15T00:18:25;6.13;;;3.13;;
43118;SDS011;28729;49.838;8.650;2022-11-15T00:22:46;5.70;;;2.58;;
43118;SDS011;28729;49.838;8.650;2022-11-15T00:27:06;5.57;;;2.95;;
43118;SDS011;28729;49.838;8.650;2022-11-15T00:31:27;7.38;;;3.05;;
43118;SDS011;28729;49.838;8.650;2022-11-15T00:35:47;6.28;;;2.97;;
43118;SDS011;28729;49.838;8.650;2022-11-15T00:40:08;6.60;;;3.22;;
43118;SDS011;28729;49.838;8.650;2022-11-15T00:44:29;7.10;;;2.90;;
43118;SDS011;28729;49.838;8.650;2022-11-15T00:48:49;6.60;;;3.03;;
43118;SDS011;28729;49.838;8.650;2022-11-15T00:53:09;7.18;;;2.80;;
43118;SDS011;28729;49.838;8.650;2022-11-15T00:57:30;7.13;;;2.85;;
43118;SDS011;28729;49.838;8.650;2022-11-15T01:01:50;6.32;;;3.08;;
43118;SDS011;28729;49.838;8.650;2022-11-15T01:06:10;7.82;;;3.55;;
43118;SDS011;28729;49.838;8.650;2022-11-15T01:10:31;5.70;;;3.10;;
43118;SDS011;28729;49.838;8.650;2022-11-15T01:14:51;5.20;;;3.20;;
43118;SDS011;28729;49.838;8.650;2022-11-15T01:19:11;5.78;;;3.08;;
43118;SDS011;28729;49.838;8.650;2022-11-15T01:23:31;4.60;;;2.67;;
43118;SDS011;28729;49.838;8.650;2022-11-15T01:27:52;5.15;;;2.78;;
43118;SDS011;28729;49.838;8.650;2022-11-15T01:32:12;10.07;;;3.15;;
43118;SDS011;28729;49.838;8.650;2022-11-15T01:36:33;5.72;;;2.78;;
43118;SDS011;28729;49.838;8.650;2022-11-15T01:40:53;6.13;;;2.75;;
43118;SDS011;28729;49.838;8.650;2022-11-15T01:45:15;6.75;;;3.17;;
43118;SDS011;28729;49.838;8.650;2022-11-15T01:49:37;4.20;;;2.40;;
43118;SDS011;28729;49.838;8.650;2022-11-15T01:54:08;8.82;;;3.17;;
43118;SDS011;28729;49.838;8.650;2022-11-15T01:58:33;5.70;;;2.60;;
43118;SDS011;28729;49.838;8.650;2022-11-15T02:02:55;7.80;;;2.95;;
43118;SDS011;28729;49.838;8.650;2022-11-15T02:07:16;7.10;;;2.88;;
43118;SDS011;28729;49.838;8.650;2022-11-15T02:16:09;7.13;;;3.10;;
43118;SDS011;28729;49.838;8.650;2022-11-15T02:25:52;6.85;;;2.88;;
43118;SDS011;28729;49.838;8.650;2022-11-15T02:30:27;5.65;;;2.65;;
43118;SDS011;28729;49.838;8.650;2022-11-15T02:39:31;5.50;;;2.50;;
43118;SDS011;28729;49.838;8.650;2022-11-15T02:43:59;6.00;;;3.28;;
43118;SDS011;28729;49.838;8.650;2022-11-15T02:48:24;5.28;;;3.13;;
43118;SDS011;28729;49.838;8.650;2022-11-15T02:52:46;5.32;;;2.55;;
43118;SDS011;28729;49.838;8.650;2022-11-15T02:57:10;5.70;;;2.30;;
43118;SDS011;28729;49.838;8.650;2022-11-15T03:01:53;7.22;;;2.88;;
43118;SDS011;28729;49.838;8.650;2022-11-15T03:11:21;8.88;;;3.30;;
43118;SDS011;28729;49.838;8.650;2022-11-15T03:16:02;5.93;;;3.20;;
43118;SDS011;28729;49.838;8.650;2022-11-15T03:24:47;7.60;;;2.72;;
43118;SDS011;28729;49.838;8.650;2022-11-15T03:29:13;6.05;;;3.25;;
43118;SDS011;28729;49.838;8.650;2022-11-15T03:33:37;6.53;;;2.95;;
43118;SDS011;28729;49.838;8.650;2022-11-15T03:38:19;6.30;;;2.83;;
43118;SDS011;28729;49.838;8.650;2022-11-15T03:42:48;6.95;;;2.70;;
43118;SDS011;28729;49.838;8.650;2022-11-15T03:47:38;5.00;;;2.47;;
43118;SDS011;28729;49.838;8.650;2022-11-15T03:52:02;5.45;;;2.72;;
43118;SDS011;28729;49.838;8.650;2022-11-15T03:56:24;6.95;;;2.65;;
43118;SDS011;28729;49.838;8.650;2022-11-15T04:00:44;7.28;;;2.80;;
43118;SDS011;28729;49.838;8.650;2022-11-15T04:05:05;4.82;;;2.17;;
43118;SDS011;28729;49.838;8.650;2022-11-15T04:09:25;6.30;;;2.53;;
43118;SDS011;28729;49.838;8.650;2022-11-15T04:13:45;4.78;;;2.30;;
43118;SDS011;28729;49.838;8.650;2022-11-15T04:18:05;6.00;;;2.67;;
43118;SDS011;28729;49.838;8.650;2022-11-15T04:22:25;7.10;;;2.70;;
43118;SDS011;28729;49.838;8.650;2022-11-15T04:27:04;4.15;;;2.97;;
43118;SDS011;28729;49.838;8.650;2022-11-15T04:31:24;5.05;;;3.03;;
43118;SDS011;28729;49.838;8.650;2022-11-15T04:35:44;4.97;;;2.90;;
43118;SDS011;28729;49.838;8.650;2022-11-15T04:40:25;8.10;;;2.83;;
43118;SDS011;28729;49.838;8.650;2022-11-15T04:44:45;5.47;;;3.03;;
43118;SDS011;28729;49.838;8.650;2022-11-15T04:49:05;4.97;;;2.53;;
43118;SDS011;28729;49.838;8.650;2022-11-15T04:53:25;7.28;;;3.20;;
43118;SDS011;28729;49.838;8.650;2022-11-15T05:02:21;6.30;;;3.45;;
43118;SDS011;28729;49.838;8.650;2022-11-15T05:06:41;7.03;;;3.15;;
43118;SDS011;28729;49.838;8.650;2022-11-15T05:11:01;7.55;;;3.70;;
43118;SDS011;28729;49.838;8.650;2022-11-15T05:15:22;6.82;;;3.40;;
43118;SDS011;28729;49.838;8.650;2022-11-15T05:19:42;7.47;;;3.83;;
43118;SDS011;28729;49.838;8.650;2022-11-15T05:24:02;7.07;;;3.40;;
43118;SDS011;28729;49.838;8.650;2022-11-15T05:28:23;7.95;;;3.65;;
43118;SDS011;28729;49.838;8.650;2022-11-15T05:32:43;6.80;;;3.97;;
43118;SDS011;28729;49.838;8.650;2022-11-15T05:37:04;7.45;;;3.70;;
43118;SDS011;28729;49.838;8.650;2022-11-15T05:41:35;7.43;;;3.83;;
43118;SDS011;28729;49.838;8.650;2022-11-15T05:45:58;8.18;;;4.00;;
43118;SDS011;28729;49.838;8.650;2022-11-15T05:50:19;6.75;;;3.67;;
43118;SDS011;28729;49.838;8.650;2022-11-15T05:54:40;8.60;;;4.30;;
43118;SDS011;28729;49.838;8.650;2022-11-15T05:59:01;8.75;;;3.95;;
43118;SDS011;28729;49.838;8.650;2022-11-15T06:03:22;8.65;;;3.53;;
43118;SDS011;28729;49.838;8.650;2022-11-15T06:07:42;6.30;;;3.83;;
43118;SDS011;28729;49.838;8.650;2022-11-15T06:12:03;7.40;;;3.55;;
43118;SDS011;28729;49.838;8.650;2022-11-15T06:16:24;7.70;;;4.30;;
43118;SDS011;28729;49.838;8.650;2022-11-15T06:20:44;6.80;;;3.53;;
43118;SDS011;28729;49.838;8.650;2022-11-15T06:25:04;6.82;;;3.42;;
43118;SDS011;28729;49.838;8.650;2022-11-15T06:29:25;7.40;;;3.45;;
43118;SDS011;28729;49.838;8.650;2022-11-15T06:33:46;8.40;;;3.60;;
43118;SDS011;28729;49.838;8.650;2022-11-15T06:38:09;7.55;;;3.20;;
43118;SDS011;28729;49.838;8.650;2022-11-15T06:42:30;6.18;;;3.38;;
43118;SDS011;28729;49.838;8.650;2022-11-15T06:46:50;6.78;;;3.60;;
43118;SDS011;28729;49.838;8.650;2022-11-15T06:51:11;7.82;;;3.92;;
43118;SDS011;28729;49.838;8.650;2022-11-15T06:55:31;8.02;;;3.50;;
43118;SDS011;28729;49.838;8.650;2022-11-15T06:59:51;9.57;;;3.50;;
43118;SDS011;28729;49.838;8.650;2022-11-15T07:04:11;7.05;;;3.55;;
43118;SDS011;28729;49.838;8.650;2022-11-15T07:08:32;7.65;;;3.88;;
43118;SDS011;28729;49.838;8.650;2022-11-15T07:12:52;10.45;;;3.78;;
43118;SDS011;28729;49.838;8.650;2022-11-15T07:17:13;6.75;;;3.88;;
43118;SDS011;28729;49.838;8.650;2022-11-15T07:21:33;9.13;;;3.92;;
43118;SDS011;28729;49.838;8.650;2022-11-15T07:25:55;6.32;;;3.85;;
43118;SDS011;28729;49.838;8.650;2022-11-15T07:30:16;7.00;;;3.80;;
43118;SDS011;28729;49.838;8.650;2022-11-15T07:34:36;9.60;;;3.75;;
43118;SDS011;28729;49.838;8.650;2022-11-15T07:38:56;9.00;;;3.90;;
43118;SDS011;28729;49.838;8.650;2022-11-15T07:43:17;7.38;;;3.85;;
43118;SDS011;28729;49.838;8.650;2022-11-15T07:47:37;7.10;;;4.20;;
43118;SDS011;28729;49.838;8.650;2022-11-15T07:51:57;6.70;;;3.75;;
43118;SDS011;28729;49.838;8.650;2022-11-15T07:56:18;8.43;;;3.65;;
43118;SDS011;28729;49.838;8.650;2022-11-15T08:00:40;10.90;;;4.03;;
43118;SDS011;28729;49.838;8.650;2022-11-15T08:05:01;7.63;;;3.65;;
43118;SDS011;28729;49.838;8.650;2022-11-15T08:09:22;9.68;;;3.45;;
43118;SDS011;28729;49.838;8.650;2022-11-15T08:13:45;7.85;;;4.00;;
43118;SDS011;28729;49.838;8.650;2022-11-15T08:18:06;7.45;;;3.55;;
43118;SDS011;28729;49.838;8.650;2022-11-15T08:22:30;5.57;;;3.22;;
43118;SDS011;28729;49.838;8.650;2022-11-15T08:26:50;6.40;;;3.58;;
43118;SDS011;28729;49.838;8.650;2022-11-15T08:31:14;7.05;;;3.72;;
43118;SDS011;28729;49.838;8.650;2022-11-15T08:35:37;11.88;;;4.88;;
43118;SDS011;28729;49.838;8.650;2022-11-15T08:39:57;11.45;;;4.35;;
43118;SDS011;28729;49.838;8.650;2022-11-15T08:44:18;7.25;;;4.30;;
43118;SDS011;28729;49.838;8.650;2022-11-15T08:48:38;8.77;;;4.60;;
43118;SDS011;28729;49.838;8.650;2022-11-15T08:53:04;6.55;;;4.20;;
43118;SDS011;28729;49.838;8.650;2022-11-15T08:57:27;7.70;;;4.22;;
43118;SDS011;28729;49.838;8.650;2022-11-15T09:01:49;6.55;;;4.60;;
43118;SDS011;28729;49.838;8.650;2022-11-15T09:06:10;8.63;;;4.75;;
43118;SDS011;28729;49.838;8.650;2022-11-15T09:10:30;9.85;;;4.53;;
43118;SDS011;28729;49.838;8.650;2022-11-15T09:14:51;11.18;;;4.50;;
43118;SDS011;28729;49.838;8.650;2022-11-15T09:19:11;7.70;;;4.63;;
43118;SDS011;28729;49.838;8.650;2022-11-15T09:23:31;7.78;;;4.10;;
43118;SDS011;28729;49.838;8.650;2022-11-15T09:27:51;8.02;;;4.35;;
43118;SDS011;28729;49.838;8.650;2022-11-15T09:32:11;6.45;;;4.47;;
43118;SDS011;28729;49.838;8.650;2022-11-15T09:36:32;8.77;;;3.97;;
43118;SDS011;28729;49.838;8.650;2022-11-15T09:50:28;7.93;;;4.35;;
43118;SDS011;28729;49.838;8.650;2022-11-15T09:54:39;8.75;;;4.68;;
43118;SDS011;28729;49.838;8.650;2022-11-15T10:03:06;6.95;;;4.63;;
43118;SDS011;28729;49.838;8.650;2022-11-15T10:11:32;8.18;;;4.30;;
43118;SDS011;28729;49.838;8.650;2022-11-15T10:15:39;10.20;;;4.15;;
43118;SDS011;28729;49.838;8.650;2022-11-15T10:24:44;6.38;;;3.72;;
43118;SDS011;28729;49.838;8.650;2022-11-15T10:28:47;5.80;;;4.10;;
43118;SDS011;28729;49.838;8.650;2022-11-15T10:32:50;6.78;;;4.25;;
43118;SDS011;28729;49.838;8.650;2022-11-15T10:36:55;7.80;;;3.80;;
43118;SDS011;28729;49.838;8.650;2022-11-15T10:41:06;7.28;;;4.00;;
43118;SDS011;28729;49.838;8.650;2022-11-15T10:45:25;6.28;;;4.07;;
43118;SDS011;28729;49.838;8.650;2022-11-15T10:49:31;8.88;;;4.03;;
43118;SDS011;28729;49.838;8.650;2022-11-15T10:53:40;6.55;;;4.22;;
43118;SDS011;28729;49.838;8.650;2022-11-15T10:57:49;7.75;;;4.05;;
43118;SDS011;28729;49.838;8.650;2022-11-15T11:01:53;7.75;;;3.80;;
43118;SDS011;28729;49.838;8.650;2022-11-15T11:06:06;6.55;;;3.83;;
43118;SDS011;28729;49.838;8.650;2022-11-15T11:10:21;7.80;;;3.78;;
43118;SDS011;28729;49.838;8.650;2022-11-15T11:14:43;6.32;;;3.00;;
43118;SDS011;28729;49.838;8.650;2022-11-15T11:40:06;5.85;;;2.45;;
43118;SDS011;28729;49.838;8.650;2022-11-15T11:53:01;3.40;;;1.80;;
43118;SDS011;28729;49.838;8.650;2022-11-15T11:57:21;2.78;;;1.73;;
43118;SDS011;28729;49.838;8.650;2022-11-15T12:01:32;3.72;;;1.90;;
43118;SDS011;28729;49.838;8.650;2022-11-15T12:05:43;5.40;;;1.63;;
43118;SDS011;28729;49.838;8.650;2022-11-15T12:10:01;2.88;;;1.60;;
43118;SDS011;28729;49.838;8.650;2022-11-15T12:14:10;4.32;;;1.52;;
43118;SDS011;28729;49.838;8.650;2022-11-15T12:18:20;2.47;;;1.20;;
43118;SDS011;28729;49.838;8.650;2022-11-15T12:22:24;3.53;;;1.40;;
43118;SDS011;28729;49.838;8.650;2022-11-15T12:26:40;2.33;;;1.27;;
43118;SDS011;28729;49.838;8.650;2022-11-15T12:30:54;3.42;;;1.30;;
43118;SDS011;28729;49.838;8.650;2022-11-15T12:35:03;2.53;;;1.30;;
43118;SDS011;28729;49.838;8.650;2022-11-15T12:40:03;2.47;;;1.33;;
43118;SDS011;28729;49.838;8.650;2022-11-15T12:44:05;2.20;;;1.00;;
43118;SDS011;28729;49.838;8.650;2022-11-15T12:52:17;5.20;;;1.02;;
43118;SDS011;28729;49.838;8.650;2022-11-15T12:56:20;1.08;;;0.75;;
43118;SDS011;28729;49.838;8.650;2022-11-15T13:04:26;3.40;;;1.73;;
43118;SDS011;28729;49.838;8.650;2022-11-15T13:08:48;4.10;;;1.30;;
43118;SDS011;28729;49.838;8.650;2022-11-15T13:16:57;3.60;;;1.17;;
43118;SDS011;28729;49.838;8.650;2022-11-15T13:21:01;5.88;;;1.33;;
43118;SDS011;28729;49.838;8.650;2022-11-15T13:29:37;2.17;;;1.42;;
43118;SDS011;28729;49.838;8.650;2022-11-15T13:33:39;2.67;;;1.77;;
43118;SDS011;28729;49.838;8.650;2022-11-15T13:37:40;3.42;;;1.60;;
43118;SDS011;28729;49.838;8.650;2022-11-15T13:41:47;5.65;;;1.83;;
43118;SDS011;28729;49.838;8.650;2022-11-15T13:46:03;3.80;;;2.17;;
43118;SDS011;28729;49.838;8.650;2022-11-15T13:50:10;5.63;;;2.00;;
43118;SDS011;28729;49.838;8.650;2022-11-15T13:58:14;6.35;;;1.63;;
43118;SDS011;28729;49.838;8.650;2022-11-15T14:02:29;3.60;;;1.95;;
43118;SDS011;28729;49.838;8.650;2022-11-15T14:06:34;6.22;;;1.90;;
43118;SDS011;28729;49.838;8.650;2022-11-15T14:10:47;3.35;;;1.70;;
43118;SDS011;28729;49.838;8.650;2022-11-15T14:14:49;3.75;;;1.75;;
43118;SDS011;28729;49.838;8.650;2022-11-15T14:18:52;3.90;;;1.70;;
43118;SDS011;28729;49.838;8.650;2022-11-15T14:26:57;4.93;;;1.75;;
43118;SDS011;28729;49.838;8.650;2022-11-15T14:31:19;4.47;;;1.87;;
43118;SDS011;28729;49.838;8.650;2022-11-15T14:35:22;7.05;;;1.80;;
43118;SDS011;28729;49.838;8.650;2022-11-15T14:39:24;5.88;;;1.70;;
43118;SDS011;28729;49.838;8.650;2022-11-15T14:43:26;8.33;;;2.33;;
43118;SDS011;28729;49.838;8.650;2022-11-15T14:47:28;6.32;;;1.60;;
43118;SDS011;28729;49.838;8.650;2022-11-15T14:51:29;5.32;;;1.75;;
43118;SDS011;28729;49.838;8.650;2022-11-15T14:55:33;3.70;;;1.83;;
43118;SDS011;28729;49.838;8.650;2022-11-15T14:59:37;5.78;;;1.75;;
43118;SDS011;28729;49.838;8.650;2022-11-15T15:03:39;6.47;;;1.80;;
43118;SDS011;28729;49.838;8.650;2022-11-15T15:07:40;7.60;;;2.03;;
43118;SDS011;28729;49.838;8.650;2022-11-15T15:11:44;5.75;;;1.75;;
43118;SDS011;28729;49.838;8.650;2022-11-15T15:15:46;4.73;;;1.73;;
43118;SDS011;28729;49.838;8.650;2022-11-15T15:19:48;4.35;;;1.90;;
43118;SDS011;28729;49.838;8.650;2022-11-15T15:23:50;3.63;;;1.42;;
43118;SDS011;28729;49.838;8.650;2022-11-15T15:27:55;4.88;;;2.72;;
43118;SDS011;28729;49.838;8.650;2022-11-15T15:31:57;3.37;;;1.50;;
43118;SDS011;28729;49.838;8.650;2022-11-15T15:35:58;3.05;;;1.55;;
43118;SDS011;28729;49.838;8.650;2022-11-15T15:40:00;2.70;;;1.13;;
43118;SDS011;28729;49.838;8.650;2022-11-15T15:44:02;3.30;;;1.17;;
43118;SDS011;28729;49.838;8.650;2022-11-15T15:48:03;3.45;;;1.33;;
43118;SDS011;28729;49.838;8.650;2022-11-15T15:52:06;5.68;;;1.58;;
43118;SDS011;28729;49.838;8.650;2022-11-15T15:56:07;3.05;;;1.05;;
43118;SDS011;28729;49.838;8.650;2022-11-15T16:00:09;5.15;;;1.77;;
43118;SDS011;28729;49.838;8.650;2022-11-15T16:04:13;3.72;;;2.10;;
43118;SDS011;28729;49.838;8.650;2022-11-15T16:12:28;3.75;;;2.17;;
43118;SDS011;28729;49.838;8.650;2022-11-15T16:16:48;3.67;;;1.77;;
43118;SDS011;28729;49.838;8.650;2022-11-15T16:20:50;4.20;;;2.28;;
43118;SDS011;28729;49.838;8.650;2022-11-15T16:24:53;5.22;;;2.85;;
43118;SDS011;28729;49.838;8.650;2022-11-15T16:28:55;4.80;;;2.10;;
43118;SDS011;28729;49.838;8.650;2022-11-15T16:32:56;4.65;;;1.98;;
43118;SDS011;28729;49.838;8.650;2022-11-15T16:36:58;9.65;;;2.40;;
43118;SDS011;28729;49.838;8.650;2022-11-15T16:41:00;3.43;;;1.97;;
43118;SDS011;28729;49.838;8.650;2022-11-15T16:45:02;6.22;;;1.83;;
43118;SDS011;28729;49.838;8.650;2022-11-15T16:49:04;4.00;;;1.38;;
43118;SDS011;28729;49.838;8.650;2022-11-15T16:53:06;4.18;;;2.17;;
43118;SDS011;28729;49.838;8.650;2022-11-15T16:57:09;5.63;;;1.70;;
43118;SDS011;28729;49.838;8.650;2022-11-15T17:01:17;5.18;;;2.00;;
43118;SDS011;28729;49.838;8.650;2022-11-15T17:05:39;3.50;;;1.80;;
43118;SDS011;28729;49.838;8.650;2022-11-15T17:10:01;4.57;;;1.73;;
43118;SDS011;28729;49.838;8.650;2022-11-15T17:14:03;4.55;;;1.88;;
43118;SDS011;28729;49.838;8.650;2022-11-15T17:18:11;6.72;;;1.92;;
43118;SDS011;28729;49.838;8.650;2022-11-15T17:22:19;5.82;;;3.03;;
43118;SDS011;28729;49.838;8.650;2022-11-15T17:26:21;7.55;;;2.95;;
43118;SDS011;28729;49.838;8.650;2022-11-15T17:30:30;5.40;;;3.65;;
43118;SDS011;28729;49.838;8.650;2022-11-15T17:34:32;4.90;;;2.75;;
43118;SDS011;28729;49.838;8.650;2022-11-15T17:38:34;5.97;;;2.15;;
43118;SDS011;28729;49.838;8.650;2022-11-15T17:42:35;4.35;;;2.25;;
43118;SDS011;28729;49.838;8.650;2022-11-15T17:46:37;6.05;;;1.50;;
43118;SDS011;28729;49.838;8.650;2022-11-15T17:50:40;4.07;;;1.60;;
43118;SDS011;28729;49.838;8.650;2022-11-15T17:54:42;3.30;;;1.85;;
43118;SDS011;28729;49.838;8.650;2022-11-15T17:58:51;3.63;;;2.30;;
43118;SDS011;28729;49.838;8.650;2022-11-15T18:02:57;6.63;;;2.45;;
43118;SDS011;28729;49.838;8.650;2022-11-15T18:06:59;6.15;;;2.92;;
43118;SDS011;28729;49.838;8.650;2022-11-15T18:11:30;3.20;;;1.95;;
43118;SDS011;28729;49.838;8.650;2022-11-15T18:15:36;4.45;;;1.75;;
43118;SDS011;28729;49.838;8.650;2022-11-15T18:19:38;6.70;;;1.70;;
43118;SDS011;28729;49.838;8.650;2022-11-15T18:23:42;4.97;;;2.00;;
43118;SDS011;28729;49.838;8.650;2022-11-15T18:27:44;4.40;;;1.83;;
43118;SDS011;28729;49.838;8.650;2022-11-15T18:31:46;4.50;;;1.65;;
43118;SDS011;28729;49.838;8.650;2022-11-15T18:35:57;4.45;;;1.88;;
43118;SDS011;28729;49.838;8.650;2022-11-15T18:40:00;7.32;;;2.17;;
43118;SDS011;28729;49.838;8.650;2022-11-15T18:44:01;8.02;;;2.65;;
43118;SDS011;28729;49.838;8.650;2022-11-15T18:48:03;2.92;;;1.80;;
43118;SDS011;28729;49.838;8.650;2022-11-15T18:52:05;5.07;;;2.10;;
43118;SDS011;28729;49.838;8.650;2022-11-15T18:56:11;8.23;;;2.60;;
43118;SDS011;28729;49.838;8.650;2022-11-15T19:00:15;6.28;;;1.92;;
43118;SDS011;28729;49.838;8.650;2022-11-15T19:04:18;3.42;;;1.70;;
43118;SDS011;28729;49.838;8.650;2022-11-15T19:08:21;3.38;;;1.83;;
43118;SDS011;28729;49.838;8.650;2022-11-15T19:12:23;4.47;;;1.42;;
43118;SDS011;28729;49.838;8.650;2022-11-15T19:16:25;3.13;;;1.85;;
43118;SDS011;28729;49.838;8.650;2022-11-15T19:20:27;2.95;;;1.60;;
43118;SDS011;28729;49.838;8.650;2022-11-15T19:24:29;4.20;;;1.50;;
43118;SDS011;28729;49.838;8.650;2022-11-15T19:28:31;4.72;;;1.80;;
43118;SDS011;28729;49.838;8.650;2022-11-15T19:32:33;8.20;;;2.25;;
43118;SDS011;28729;49.838;8.650;2022-11-15T19:36:39;5.10;;;1.70;;
43118;SDS011;28729;49.838;8.650;2022-11-15T19:40:41;4.57;;;1.85;;
43118;SDS011;28729;49.838;8.650;2022-11-15T19:44:43;3.05;;;1.90;;
43118;SDS011;28729;49.838;8.650;2022-11-15T19:48:45;3.10;;;1.58;;
43118;SDS011;28729;49.838;8.650;2022-11-15T19:52:49;6.03;;;1.95;;
43118;SDS011;28729;49.838;8.650;2022-11-15T19:56:50;4.45;;;2.10;;
43118;SDS011;28729;49.838;8.650;2022-11-15T20:00:58;6.90;;;1.95;;
43118;SDS011;28729;49.838;8.650;2022-11-15T20:05:04;3.72;;;1.95;;
43118;SDS011;28729;49.838;8.650;2022-11-15T20:09:06;5.78;;;2.53;;
43118;SDS011;28729;49.838;8.650;2022-11-15T20:13:08;3.67;;;2.25;;
43118;SDS011;28729;49.838;8.650;2022-11-15T20:17:10;5.43;;;2.15;;
43118;SDS011;28729;49.838;8.650;2022-11-15T20:21:11;3.92;;;1.80;;
43118;SDS011;28729;49.838;8.650;2022-11-15T20:25:13;3.87;;;1.93;;
43118;SDS011;28729;49.838;8.650;2022-11-15T20:29:16;5.80;;;2.15;;
43118;SDS011;28729;49.838;8.650;2022-11-15T20:33:18;4.25;;;2.08;;
43118;SDS011;28729;49.838;8.650;2022-11-15T20:37:20;7.03;;;3.35;;
43118;SDS011;28729;49.838;8.650;2022-11-15T20:41:22;10.52;;;5.57;;
43118;SDS011;28729;49.838;8.650;2022-11-15T20:45:24;6.03;;;3.13;;
43118;SDS011;28729;49.838;8.650;2022-11-15T20:49:25;8.90;;;2.92;;
43118;SDS011;28729;49.838;8.650;2022-11-15T20:53:27;7.15;;;3.13;;
43118;SDS011;28729;49.838;8.650;2022-11-15T20:57:32;8.23;;;3.75;;
43118;SDS011;28729;49.838;8.650;2022-11-15T21:01:33;9.82;;;4.10;;
43118;SDS011;28729;49.838;8.650;2022-11-15T21:05:42;9.20;;;4.65;;
43118;SDS011;28729;49.838;8.650;2022-11-15T21:09:53;11.90;;;4.47;;
43118;SDS011;28729;49.838;8.650;2022-11-15T21:14:13;9.13;;;4.32;;
43118;SDS011;28729;49.838;8.650;2022-11-15T21:18:15;6.95;;;3.53;;
43118;SDS011;28729;49.838;8.650;2022-11-15T21:22:17;7.53;;;3.50;;
43118;SDS011;28729;49.838;8.650;2022-11-15T21:26:18;4.43;;;2.95;;
43118;SDS011;28729;49.838;8.650;2022-11-15T21:30:20;5.53;;;3.90;;
43118;SDS011;28729;49.838;8.650;2022-11-15T21:34:22;6.40;;;3.80;;
43118;SDS011;28729;49.838;8.650;2022-11-15T21:38:24;7.72;;;3.88;;
43118;SDS011;28729;49.838;8.650;2022-11-15T21:42:26;6.10;;;3.30;;
43118;SDS011;28729;49.838;8.650;2022-11-15T21:46:28;4.63;;;2.85;;
43118;SDS011;28729;49.838;8.650;2022-11-15T21:50:31;6.05;;;3.33;;
43118;SDS011;28729;49.838;8.650;2022-11-15T21:54:33;6.38;;;2.72;;
43118;SDS011;28729;49.838;8.650;2022-11-15T21:58:34;4.80;;;2.90;;
43118;SDS011;28729;49.838;8.650;2022-11-15T22:02:38;8.90;;;2.97;;
43118;SDS011;28729;49.838;8.650;2022-11-15T22:06:39;4.82;;;2.60;;
43118;SDS011;28729;49.838;8.650;2022-11-15T22:10:44;6.55;;;2.70;;
43118;SDS011;28729;49.838;8.650;2022-11-15T22:14:47;5.53;;;2.63;;
43118;SDS011;28729;49.838;8.650;2022-11-15T22:18:48;7.82;;;3.33;;
43118;SDS011;28729;49.838;8.650;2022-11-15T22:22:50;5.05;;;2.80;;
43118;SDS011;28729;49.838;8.650;2022-11-15T22:26:52;6.78;;;3.17;;
43118;SDS011;28729;49.838;8.650;2022-11-15T22:30:53;5.80;;;3.35;;
43118;SDS011;28729;49.838;8.650;2022-11-15T22:34:56;8.23;;;4.32;;
43118;SDS011;28729;49.838;8.650;2022-11-15T22:38:58;8.63;;;4.37;;
43118;SDS011;28729;49.838;8.650;2022-11-15T22:43:00;6.70;;;3.13;;
43118;SDS011;28729;49.838;8.650;2022-11-15T22:47:02;4.97;;;3.13;;
43118;SDS011;28729;49.838;8.650;2022-11-15T22:51:04;6.63;;;2.90;;
43118;SDS011;28729;49.838;8.650;2022-11-15T22:55:06;7.85;;;3.33;;
43118;SDS011;28729;49.838;8.650;2022-11-15T22:59:08;8.48;;;3.65;;
43118;SDS011;28729;49.838;8.650;2022-11-15T23:03:10;8.45;;;4.00;;
43118;SDS011;28729;49.838;8.650;2022-11-15T23:07:11;6.85;;;3.70;;
43118;SDS011;28729;49.838;8.650;2022-11-15T23:11:14;4.13;;;2.42;;
43118;SDS011;28729;49.838;8.650;2022-11-15T23:15:34;4.70;;;2.95;;
43118;SDS011;28729;49.838;8.650;2022-11-15T23:19:55;6.00;;;3.17;;
43118;SDS011;28729;49.838;8.650;2022-11-15T23:23:56;5.85;;;2.78;;
43118;SDS011;28729;49.838;8.650;2022-11-15T23:28:00;4.47;;;2.90;;
43118;SDS011;28729;49.838;8.650;2022-11-15T23:32:07;8.25;;;3.80;;
43118;SDS011;28729;49.838;8.650;2022-11-15T23:36:27;5.18;;;3.13;;
43118;SDS011;28729;49.838;8.650;2022-11-15T23:40:29;6.30;;;3.58;;
43118;SDS011;28729;49.838;8.650;2022-11-15T23:44:31;8.80;;;4.13;;
43118;SDS011;28729;49.838;8.650;2022-11-15T23:48:33;8.48;;;4.85;;
43118;SDS011;28729;49.838;8.650;2022-11-15T23:52:35;7.67;;;4.80;;
43118;SDS011;28729;49.838;8.650;2022-11-15T23:56:36;7.80;;;4.53;;
